Startpagina
METAR-TAF:

METAR-TAF

Vliegvelden :

Indianapolis, Indiana, Verenigde Staten

Indianapolis International Airport

breedte: 39-43-30N, lengte: 086-16-55W, hoogte: 243 m

Actueel weer

Dit bericht is 40 minuten geleden gemaakt, om 16:54 UTC
Wind 9 kt uit het oostzuidoosten, variërend tussen het oostnoordoosten en het zuidoosten
Temperatuur 13°C
Vochtigheid 30%
Druk 1030 hPa
Zicht: 16.1 km
Verspreide wolken op 20000 ft
Gebroken wolken op 25000 ft

METAR: KIND 211654Z 11009KT 070V130 10SM SCT200 BKN250 13/M04 A3041 RMK AO2 SLP298 T01331044

Tijdstip: 13:34 (17:34 UTC)

Verwachting

Dit bericht is 3 uur en het 18 minuten geleden gemaakt, om 14:16 UTC
Verwachting geldig van 21 om 14 UTC tot 22 om 18 UTC
Wind 9 kt uit het oosten
Zicht: 10 km
Gebroken wolken op 25000 ft
Van 21 om 1800 UTC
Wind 5 kt uit het oostnoordoosten
Zicht: 10 km
Verspreide wolken op 25000 ft

TAF: KIND 211416Z 2114/2218 10009KT P6SM BKN250 FM211800 07005KT P6SM SCT250

Waarnemingen en weersverwachtingen van meer dan 4000 vliegvelden (METAR en TAF).

De beschikbare stations zijn de gele en rode punten op de kaart.

Ga met uw muis naar het station om de naam te zien.

Klik dan om waarnemingen en weersverwachtingen te zien.

kaart wijzigen: klik op de groene knoppen met een zwart kruis om in te zoomen, op de groene knop met een streepje om uit te zoomen of op de groene pijlen voor aangrenzende kaarten.


METAR-TAF: